createdAt,value
2023-02-05T00:00:10.733Z,103338.56
2023-02-05T00:01:18.015Z,103338.31
2023-02-05T00:02:10.367Z,103338.31
2023-02-05T00:03:01.837Z,103337.38
2023-02-05T00:03:53.530Z,103342.56
2023-02-05T00:04:45.028Z,103344.25
2023-02-05T00:05:36.599Z,103336.50
2023-02-05T00:06:28.273Z,103335.59
2023-02-05T00:07:19.722Z,103331.19
2023-02-05T00:08:11.168Z,103325.91
2023-02-05T00:09:02.839Z,103328.34
2023-02-05T00:09:54.527Z,103321.38
2023-02-05T00:10:51.970Z,103316.97
2023-02-05T00:11:43.469Z,103320.50
2023-02-05T00:12:35.322Z,103320.50
2023-02-05T00:13:27.296Z,103322.06
2023-02-05T00:14:18.805Z,103319.31
2023-02-05T00:15:10.669Z,103316.88
2023-02-05T00:16:13.916Z,103306.28
2023-02-05T00:17:05.660Z,103311.47
2023-02-05T00:18:00.278Z,103308.09
2023-02-05T00:18:53.429Z,103302.00
2023-02-05T00:19:44.993Z,103310.69
2023-02-05T00:20:36.555Z,103305.38
2023-02-05T00:21:28.048Z,103311.47
2023-02-05T00:22:19.690Z,103301.13
2023-02-05T00:23:11.236Z,103304.59
2023-02-05T00:24:02.736Z,103299.31
2023-02-05T00:24:54.172Z,103301.13
2023-02-05T00:25:45.832Z,103301.22
2023-02-05T00:26:38.101Z,103295.25
2023-02-05T00:27:29.842Z,103293.72
2023-02-05T00:28:21.303Z,103293.84
2023-02-05T00:29:12.836Z,103286.88
2023-02-05T00:30:05.301Z,103295.50
2023-02-05T00:30:56.771Z,103292.81
2023-02-05T00:31:49.822Z,103293.72
2023-02-05T00:32:41.436Z,103290.22
2023-02-05T00:33:32.969Z,103290.22
2023-02-05T00:34:24.578Z,103292.94
2023-02-05T00:35:16.160Z,103293.84
2023-02-05T00:36:10.459Z,103286.19
2023-02-05T00:37:02.920Z,103287.22
2023-02-05T00:37:56.216Z,103287.09
2023-02-05T00:38:48.470Z,103278.56
2023-02-05T00:39:40.278Z,103279.09
2023-02-05T00:40:31.756Z,103281.31
2023-02-05T00:41:23.242Z,103274.97
2023-02-05T00:42:14.928Z,103280.78
2023-02-05T00:43:06.533Z,103278.84
2023-02-05T00:43:58.200Z,103276.16
2023-02-05T00:44:49.632Z,103276.78
2023-02-05T00:45:41.331Z,103280.16
2023-02-05T00:46:33.063Z,103278.50
2023-02-05T00:47:24.544Z,103288.84
2023-02-05T00:48:16.345Z,103289.72
2023-02-05T00:49:07.855Z,103281.72
2023-02-05T00:49:59.297Z,103289.38
2023-02-05T00:50:52.902Z,103287.44
2023-02-05T00:51:44.436Z,103283.19
2023-02-05T00:52:36.233Z,103283.19
2023-02-05T00:53:28.239Z,103280.59
2023-02-05T00:54:19.677Z,103279.66
2023-02-05T00:55:11.132Z,103280.34
2023-02-05T00:56:02.931Z,103275.97
2023-02-05T00:56:54.645Z,103279.44
2023-02-05T00:57:46.420Z,103281.13
2023-02-05T00:58:38.263Z,103277.75
2023-02-05T00:59:29.975Z,103278.88
2023-02-05T01:00:22.392Z,103275.66
2023-02-05T01:01:15.220Z,103271.28
2023-02-05T01:02:07.030Z,103262.50
2023-02-05T01:03:01.249Z,103256.16
2023-02-05T01:03:53.075Z,103263.03
2023-02-05T01:04:46.864Z,103257.72
2023-02-05T01:05:39.689Z,103248.28
2023-02-05T01:06:31.421Z,103256.94
2023-02-05T01:07:22.866Z,103253.56
2023-02-05T01:08:14.890Z,103250.97
2023-02-05T01:09:06.435Z,103251.66
2023-02-05T01:09:57.893Z,103254.09
2023-02-05T01:10:52.168Z,103251.28
2023-02-05T01:11:44.094Z,103248.69
2023-02-05T01:12:35.639Z,103250.25
2023-02-05T01:13:27.802Z,103257.22
2023-02-05T01:14:19.363Z,103262.66
2023-02-05T01:15:13.755Z,103262.78
2023-02-05T01:16:05.721Z,103257.63
2023-02-05T01:16:57.209Z,103259.53
2023-02-05T01:17:48.689Z,103256.28
2023-02-05T01:18:40.314Z,103253.72
2023-02-05T01:19:34.343Z,103258.09
2023-02-05T01:20:26.464Z,103259.66
2023-02-05T01:21:18.454Z,103251.53
2023-02-05T01:22:11.422Z,103255.53
2023-02-05T01:23:03.333Z,103252.06
2023-02-05T01:23:54.885Z,103246.88
2023-02-05T01:24:46.724Z,103249.47
2023-02-05T01:25:38.524Z,103248.69
2023-02-05T01:26:30.327Z,103248.78
2023-02-05T01:27:21.831Z,103245.44
2023-02-05T01:28:13.665Z,103248.03
2023-02-05T01:29:05.555Z,103246.34
2023-02-05T01:29:57.292Z,103245.44
2023-02-05T01:30:50.614Z,103240.25
2023-02-05T01:31:42.244Z,103244.41
2023-02-05T01:32:33.875Z,103240.16
2023-02-05T01:33:26.007Z,103242.75
2023-02-05T01:34:17.568Z,103244.53
2023-02-05T01:35:09.578Z,103241.19
2023-02-05T01:36:01.385Z,103236.25
2023-02-05T01:36:53.498Z,103235.38
2023-02-05T01:37:45.100Z,103240.53
2023-02-05T01:38:36.617Z,103231.75
2023-02-05T01:39:28.117Z,103228.25
2023-02-05T01:40:20.966Z,103229.03
2023-02-05T01:41:13.545Z,103227.22
2023-02-05T01:42:20.301Z,103227.22
2023-02-05T01:43:13.742Z,103228.25
2023-02-05T01:44:07.698Z,103225.53
2023-02-05T01:45:23.817Z,103229.81
2023-02-05T01:46:25.904Z,103234.97
2023-02-05T01:47:17.356Z,103233.28
2023-02-05T01:48:09.732Z,103231.22
2023-02-05T01:49:04.394Z,103231.38
2023-02-05T01:49:58.242Z,103234.22
2023-02-05T01:51:01.530Z,103237.69
2023-02-05T01:51:58.634Z,103241.19
2023-02-05T01:52:50.659Z,103244.78
2023-02-05T01:53:45.822Z,103240.41
2023-02-05T01:54:43.439Z,103249.84
2023-02-05T01:55:43.728Z,103243.91
2023-02-05T01:56:49.332Z,103243.22
2023-02-05T01:57:41.678Z,103248.53
2023-02-05T01:58:40.290Z,103239.63
2023-02-05T01:59:35.959Z,103244.78
2023-02-05T02:00:27.761Z,103241.31
2023-02-05T02:01:19.693Z,103242.09
2023-02-05T02:02:12.428Z,103248.16
2023-02-05T02:03:04.905Z,103248.03
2023-02-05T02:04:01.133Z,103248.16
2023-02-05T02:04:58.123Z,103243.13
2023-02-05T02:05:49.560Z,103243.91
2023-02-05T02:06:41.304Z,103235.88
2023-02-05T02:07:33.678Z,103231.13
2023-02-05T02:08:25.955Z,103237.97
2023-02-05T02:09:17.490Z,103232.69
2023-02-05T02:10:13.849Z,103224.16
2023-02-05T02:11:09.569Z,103228.16
2023-02-05T02:12:02.709Z,103223.13
2023-02-05T02:12:55.104Z,103220.53
2023-02-05T02:13:51.644Z,103222.09
2023-02-05T02:14:49.174Z,103209.97
2023-02-05T02:15:41.808Z,103214.09
2023-02-05T02:16:36.721Z,103213.44
2023-02-05T02:17:30.732Z,103203.09
2023-02-05T02:18:27.717Z,103201.53
2023-02-05T02:19:35.369Z,103191.63
2023-02-05T02:20:38.650Z,103195.38
2023-02-05T02:22:09.515Z,103202.50
2023-02-05T02:23:20.942Z,103198.75
2023-02-05T02:24:43.182Z,103201.19
2023-02-05T02:26:10.436Z,103196.94
2023-02-05T02:27:32.489Z,103188.03
2023-02-05T02:28:51.410Z,103185.63
2023-02-05T02:30:04.170Z,103177.88
2023-02-05T02:31:23.662Z,103182.13
2023-02-05T02:32:17.919Z,103190.91
2023-02-05T02:33:36.930Z,103197.88
2023-02-05T02:34:41.463Z,103204.19
2023-02-05T02:35:47.250Z,103205.88
2023-02-05T02:36:55.102Z,103215.19
2023-02-05T02:37:58.464Z,103214.94
2023-02-05T02:39:14.058Z,103215.59
2023-02-05T02:40:18.069Z,103225.78
2023-02-05T02:41:25.974Z,103222.69
2023-02-05T02:42:34.446Z,103227.75
2023-02-05T02:43:54.407Z,103222.69
2023-02-05T02:45:00.145Z,103217.50
2023-02-05T02:46:01.926Z,103224.38
2023-02-05T02:46:58.930Z,103223.72
2023-02-05T02:47:58.243Z,103225.50
2023-02-05T02:48:56.215Z,103223.31
2023-02-05T02:49:59.895Z,103228.44
2023-02-05T02:50:56.448Z,103230.78
2023-02-05T02:51:52.230Z,103227.81
2023-02-05T02:52:48.318Z,103225.13
2023-02-05T02:53:48.020Z,103216.84
2023-02-05T02:54:43.469Z,103219.81
2023-02-05T02:55:43.679Z,103224.72
2023-02-05T02:56:39.910Z,103226.94
2023-02-05T02:57:36.410Z,103225.75
2023-02-05T02:58:35.418Z,103221.25
2023-02-05T02:59:32.885Z,103231.47
2023-02-05T03:00:27.393Z,103228.63
2023-02-05T03:01:25.037Z,103236.13
2023-02-05T03:02:17.754Z,103228.91
2023-02-05T03:03:15.516Z,103236.41
2023-02-05T03:04:19.775Z,103237.31
2023-02-05T03:05:17.241Z,103229.69
2023-02-05T03:06:14.499Z,103223.88
2023-02-05T03:07:26.435Z,103219.84
2023-02-05T03:08:40.325Z,103229.31
2023-02-05T03:09:46.877Z,103232.00
2023-02-05T03:10:46.296Z,103235.25
2023-02-05T03:11:39.520Z,103231.63
2023-02-05T03:12:31.439Z,103227.25
2023-02-05T03:13:23.156Z,103224.53
2023-02-05T03:14:20.538Z,103230.06
2023-02-05T03:15:15.518Z,103231.88
2023-02-05T03:16:08.458Z,103226.03
2023-02-05T03:16:59.932Z,103228.00
2023-02-05T03:17:56.052Z,103218.53
2023-02-05T03:18:49.446Z,103222.03
2023-02-05T03:19:41.364Z,103215.19
2023-02-05T03:20:41.033Z,103216.88
2023-02-05T03:21:42.729Z,103216.34
2023-02-05T03:22:34.216Z,103215.56
2023-02-05T03:23:30.236Z,103208.84
2023-02-05T03:24:22.569Z,103211.91
2023-02-05T03:25:19.227Z,103207.38
2023-02-05T03:26:35.220Z,103204.00
2023-02-05T03:27:48.854Z,103201.03
2023-02-05T03:28:40.782Z,103202.50
2023-02-05T03:29:44.450Z,103201.34
2023-02-05T03:30:52.625Z,103200.16
2023-02-05T03:32:13.796Z,103199.16
2023-02-05T03:33:53.238Z,103204.06
2023-02-05T03:34:53.887Z,103197.09
2023-02-05T03:35:56.124Z,103188.31
2023-02-05T03:37:42.635Z,103190.00
2023-02-05T03:38:53.516Z,103188.22
2023-02-05T03:40:12.671Z,103191.94
2023-02-05T03:41:22.825Z,103184.41
2023-02-05T03:42:30.298Z,103194.91
2023-02-05T03:43:33.654Z,103194.22
2023-02-05T03:44:53.082Z,103195.25
2023-02-05T03:45:53.591Z,103198.88
2023-02-05T03:47:00.920Z,103186.84
2023-02-05T03:48:01.384Z,103181.59
2023-02-05T03:49:15.293Z,103177.94
2023-02-05T03:50:29.476Z,103176.13
2023-02-05T03:51:47.318Z,103186.63
2023-02-05T03:52:54.971Z,103180.53
2023-02-05T03:54:14.815Z,103179.00
2023-02-05T03:55:23.902Z,103171.88
2023-02-05T03:56:28.499Z,103175.00
2023-02-05T03:57:25.242Z,103180.94
2023-02-05T03:58:31.815Z,103174.47
2023-02-05T03:59:26.280Z,103175.50
2023-02-05T04:00:18.550Z,103177.31
2023-02-05T04:01:13.436Z,103173.06
2023-02-05T04:02:08.153Z,103174.97
2023-02-05T04:03:05.284Z,103171.25
2023-02-05T04:03:58.508Z,103174.56
2023-02-05T04:04:50.049Z,103178.63
2023-02-05T04:05:42.125Z,103180.28
2023-02-05T04:06:33.883Z,103172.41
2023-02-05T04:07:25.765Z,103174.22
2023-02-05T04:08:17.268Z,103175.88
2023-02-05T04:09:13.404Z,103174.09
2023-02-05T04:10:05.377Z,103172.19
2023-02-05T04:10:57.726Z,103181.47
2023-02-05T04:11:50.238Z,103179.69
2023-02-05T04:12:45.720Z,103189.22
2023-02-05T04:13:37.212Z,103180.47
2023-02-05T04:14:29.618Z,103182.13
2023-02-05T04:15:21.373Z,103178.66
2023-02-05T04:16:17.394Z,103181.34
2023-02-05T04:17:12.232Z,103177.97
2023-02-05T04:18:05.265Z,103184.94
2023-02-05T04:18:56.991Z,103178.91
2023-02-05T04:19:49.288Z,103182.38
2023-02-05T04:20:43.248Z,103183.63
2023-02-05T04:21:34.683Z,103187.50
2023-02-05T04:22:26.487Z,103185.06
2023-02-05T04:23:17.939Z,103187.63
2023-02-05T04:24:10.057Z,103180.13
2023-02-05T04:25:01.736Z,103182.06
2023-02-05T04:25:55.098Z,103182.19
2023-02-05T04:26:52.756Z,103181.41
2023-02-05T04:27:44.894Z,103179.28
2023-02-05T04:28:37.412Z,103177.50
2023-02-05T04:29:30.595Z,103175.59
2023-02-05T04:30:23.113Z,103180.75
2023-02-05T04:31:15.029Z,103174.91
2023-02-05T04:32:07.960Z,103186.16
2023-02-05T04:32:59.718Z,103183.59
2023-02-05T04:33:51.538Z,103183.44
2023-02-05T04:34:44.060Z,103186.94
2023-02-05T04:35:37.542Z,103193.53
2023-02-05T04:36:29.331Z,103195.22
2023-02-05T04:37:21.983Z,103193.53
2023-02-05T04:38:13.972Z,103189.41
2023-02-05T04:39:05.811Z,103190.31
2023-02-05T04:39:57.529Z,103191.97
2023-02-05T04:40:49.126Z,103189.16
2023-02-05T04:41:40.788Z,103197.03
2023-02-05T04:42:32.246Z,103197.94
2023-02-05T04:43:23.749Z,103199.63
2023-02-05T04:44:15.504Z,103203.09
2023-02-05T04:45:07.562Z,103203.63
2023-02-05T04:46:08.257Z,103203.78
2023-02-05T04:46:59.817Z,103196.00
2023-02-05T04:47:51.225Z,103196.00
2023-02-05T04:48:42.705Z,103197.81
2023-02-05T04:49:34.587Z,103187.47
2023-02-05T04:50:26.901Z,103196.00
2023-02-05T04:51:18.593Z,103192.50
2023-02-05T04:52:10.313Z,103192.50
2023-02-05T04:53:02.545Z,103193.53
2023-02-05T04:53:53.951Z,103199.72
2023-02-05T04:54:45.771Z,103193.78
2023-02-05T04:55:37.272Z,103196.50
2023-02-05T04:56:29.005Z,103193.13
2023-02-05T04:57:20.492Z,103192.47
2023-02-05T04:58:12.294Z,103194.16
2023-02-05T04:59:04.123Z,103193.13
2023-02-05T04:59:55.539Z,103194.56
2023-02-05T05:00:47.229Z,103203.22
2023-02-05T05:01:38.977Z,103196.38
2023-02-05T05:02:30.704Z,103192.91
2023-02-05T05:03:22.211Z,103194.69
2023-02-05T05:04:13.733Z,103197.28
2023-02-05T05:05:06.902Z,103195.59
2023-02-05T05:06:03.709Z,103198.31
2023-02-05T05:06:55.160Z,103202.47
2023-02-05T05:07:46.949Z,103203.88
2023-02-05T05:08:38.728Z,103205.31
2023-02-05T05:09:30.455Z,103195.09
2023-02-05T05:10:23.459Z,103190.84
2023-02-05T05:11:18.368Z,103194.06
2023-02-05T05:12:09.856Z,103199.38
2023-02-05T05:13:01.309Z,103199.38
2023-02-05T05:13:54.043Z,103195.78
2023-02-05T05:14:45.539Z,103200.03
2023-02-05T05:15:37.609Z,103183.25
2023-02-05T05:16:29.297Z,103195.38
2023-02-05T05:17:20.812Z,103198.63
2023-02-05T05:18:12.279Z,103203.53
2023-02-05T05:19:03.963Z,103201.88
2023-02-05T05:19:55.552Z,103214.00
2023-02-05T05:20:47.005Z,103200.03
2023-02-05T05:21:38.524Z,103204.25
2023-02-05T05:22:30.226Z,103204.38
2023-02-05T05:23:22.557Z,103197.38
2023-02-05T05:24:14.152Z,103203.00
2023-02-05T05:25:05.923Z,103193.81
2023-02-05T05:25:57.832Z,103195.91
2023-02-05T05:26:49.290Z,103190.38
2023-02-05T05:27:40.739Z,103193.72
2023-02-05T05:28:34.446Z,103188.31
2023-02-05T05:29:25.983Z,103191.69
2023-02-05T05:30:17.837Z,103189.00
2023-02-05T05:31:16.516Z,103183.69
2023-02-05T05:32:08.085Z,103182.91
2023-02-05T05:32:59.500Z,103182.03
2023-02-05T05:33:51.724Z,103175.03
2023-02-05T05:34:43.385Z,103189.00
2023-02-05T05:35:36.806Z,103179.28
2023-02-05T05:36:28.399Z,103191.31
2023-02-05T05:37:21.301Z,103181.09
2023-02-05T05:38:12.964Z,103184.59
2023-02-05T05:39:22.899Z,103192.34
2023-02-05T05:40:33.320Z,103178.66
2023-02-05T05:41:44.896Z,103175.94
2023-02-05T05:42:56.468Z,103171.69
2023-02-05T05:43:49.241Z,103170.91
2023-02-05T05:44:41.024Z,103166.63
2023-02-05T05:45:32.867Z,103169.34
2023-02-05T05:46:26.262Z,103170.22
2023-02-05T05:47:19.238Z,103174.50
2023-02-05T05:48:10.777Z,103174.63
2023-02-05T05:49:04.315Z,103177.19
2023-02-05T05:49:55.838Z,103167.78
2023-02-05T05:50:47.530Z,103167.00
2023-02-05T05:51:39.080Z,103169.94
2023-02-05T05:52:32.660Z,103169.31
2023-02-05T05:53:24.558Z,103165.94
2023-02-05T05:54:16.052Z,103165.78
2023-02-05T05:55:07.943Z,103173.56
2023-02-05T05:55:59.531Z,103167.50
2023-02-05T05:56:50.962Z,103168.28
2023-02-05T05:57:42.477Z,103173.44
2023-02-05T05:58:34.017Z,103167.25
2023-02-05T05:59:25.522Z,103165.44
2023-02-05T06:00:17.576Z,103164.53
2023-02-05T06:01:11.155Z,103164.66
2023-02-05T06:02:04.567Z,103168.28
2023-02-05T06:02:56.037Z,103162.34
2023-02-05T06:03:47.777Z,103161.41
2023-02-05T06:04:39.360Z,103163.09
2023-02-05T06:05:33.647Z,103160.28
2023-02-05T06:06:25.313Z,103168.28
2023-02-05T06:07:16.756Z,103166.72
2023-02-05T06:08:08.393Z,103157.25
2023-02-05T06:08:59.990Z,103162.44
2023-02-05T06:09:51.615Z,103163.22
2023-02-05T06:10:43.170Z,103158.31
2023-02-05T06:11:34.648Z,103166.97
2023-02-05T06:12:26.081Z,103166.31
2023-02-05T06:13:17.542Z,103166.44
2023-02-05T06:14:09.095Z,103161.41
2023-02-05T06:15:00.586Z,103163.19
2023-02-05T06:15:52.449Z,103164.09
2023-02-05T06:16:43.933Z,103163.06
2023-02-05T06:17:35.469Z,103162.28
2023-02-05T06:18:27.111Z,103169.16
2023-02-05T06:19:18.663Z,103168.22
2023-02-05T06:20:10.991Z,103170.81
2023-02-05T06:21:04.512Z,103168.59
2023-02-05T06:21:55.933Z,103169.75
2023-02-05T06:22:47.509Z,103173.78
2023-02-05T06:23:38.919Z,103167.59
2023-02-05T06:24:31.071Z,103171.06
2023-02-05T06:25:27.292Z,103172.56
2023-02-05T06:26:18.803Z,103170.47
2023-02-05T06:27:10.510Z,103163.88
2023-02-05T06:28:02.884Z,103169.97
2023-02-05T06:28:57.292Z,103165.66
2023-02-05T06:29:48.944Z,103167.22
2023-02-05T06:30:40.679Z,103166.06
2023-02-05T06:31:32.465Z,103167.53
2023-02-05T06:32:26.519Z,103165.59
2023-02-05T06:33:18.579Z,103167.16
2023-02-05T06:34:10.067Z,103161.19
2023-02-05T06:35:01.544Z,103160.31
2023-02-05T06:35:52.993Z,103159.41
2023-02-05T06:36:44.426Z,103155.94
2023-02-05T06:37:47.206Z,103152.56
2023-02-05T06:38:39.334Z,103157.06
2023-02-05T06:39:31.467Z,103153.81
2023-02-05T06:40:25.763Z,103160.81
2023-02-05T06:41:17.335Z,103157.28
2023-02-05T06:42:09.192Z,103163.16
2023-02-05T06:43:01.269Z,103154.38
2023-02-05T06:43:52.688Z,103154.38
2023-02-05T06:44:44.106Z,103160.31
2023-02-05T06:45:35.971Z,103158.13
2023-02-05T06:46:27.712Z,103153.75
2023-02-05T06:47:19.223Z,103156.22
2023-02-05T06:48:10.704Z,103158.66
2023-02-05T06:49:02.392Z,103160.38
2023-02-05T06:49:53.880Z,103162.81
2023-02-05T06:50:45.914Z,103157.66
2023-02-05T06:51:37.498Z,103158.44
2023-02-05T06:52:29.157Z,103157.53
2023-02-05T06:53:20.586Z,103162.81
2023-02-05T06:54:12.397Z,103156.88
2023-02-05T06:55:04.655Z,103154.19
2023-02-05T06:55:58.843Z,103156.09
2023-02-05T06:56:50.520Z,103151.84
2023-02-05T06:57:41.984Z,103149.25
2023-02-05T06:58:33.513Z,103150.03
2023-02-05T06:59:25.081Z,103150.03
2023-02-05T07:00:17.295Z,103151.84
2023-02-05T07:01:08.757Z,103147.44
2023-02-05T07:02:00.267Z,103146.66
2023-02-05T07:02:53.059Z,103146.78
2023-02-05T07:03:44.924Z,103149.72
2023-02-05T07:04:36.383Z,103151.66
2023-02-05T07:05:28.425Z,103145.59
2023-02-05T07:06:20.159Z,103144.81
2023-02-05T07:07:11.846Z,103140.41
2023-02-05T07:08:04.106Z,103150.09
2023-02-05T07:08:55.819Z,103149.44
2023-02-05T07:09:47.555Z,103144.50
2023-02-05T07:10:38.968Z,103144.63
2023-02-05T07:11:31.137Z,103155.22
2023-02-05T07:12:23.008Z,103151.84
2023-02-05T07:13:14.424Z,103144.19
2023-02-05T07:14:05.984Z,103144.19
2023-02-05T07:14:57.432Z,103139.94
2023-02-05T07:15:49.622Z,103140.59
2023-02-05T07:16:41.106Z,103142.63
2023-02-05T07:17:32.864Z,103141.75
2023-02-05T07:18:24.430Z,103140.97
2023-02-05T07:19:16.641Z,103142.88
2023-02-05T07:20:08.605Z,103149.75
2023-02-05T07:21:04.118Z,103137.84
2023-02-05T07:21:55.576Z,103140.53
2023-02-05T07:22:47.190Z,103139.66
2023-02-05T07:23:38.803Z,103143.25
2023-02-05T07:24:30.799Z,103139.88
2023-02-05T07:25:22.298Z,103137.94
2023-02-05T07:26:16.262Z,103143.34
2023-02-05T07:27:07.958Z,103146.97
2023-02-05T07:27:59.782Z,103140.00
2023-02-05T07:28:51.313Z,103145.94
2023-02-05T07:29:42.762Z,103138.19
2023-02-05T07:30:35.858Z,103136.75
2023-02-05T07:31:27.466Z,103134.94
2023-02-05T07:32:19.280Z,103135.72
2023-02-05T07:33:11.062Z,103140.00
2023-02-05T07:34:02.609Z,103141.69
2023-02-05T07:34:54.527Z,103143.50
2023-02-05T07:35:46.239Z,103141.78
2023-02-05T07:36:37.924Z,103136.63
2023-02-05T07:37:29.377Z,103140.22
2023-02-05T07:38:20.827Z,103136.25
2023-02-05T07:39:12.252Z,103137.25
2023-02-05T07:40:04.516Z,103140.63
2023-02-05T07:40:57.271Z,103132.00
2023-02-05T07:41:51.196Z,103133.53
2023-02-05T07:42:51.482Z,103136.09
2023-02-05T07:43:43.251Z,103137.25
2023-02-05T07:44:34.694Z,103135.81
2023-02-05T07:45:26.425Z,103141.09
2023-02-05T07:46:18.382Z,103131.53
2023-02-05T07:47:09.913Z,103131.78
2023-02-05T07:48:01.426Z,103136.31
2023-02-05T07:48:53.137Z,103132.25
2023-02-05T07:49:45.361Z,103131.22
2023-02-05T07:50:36.905Z,103143.50
2023-02-05T07:51:28.409Z,103129.66
2023-02-05T07:52:19.999Z,103130.44
2023-02-05T07:53:11.447Z,103138.44
2023-02-05T07:54:10.592Z,103138.09
2023-02-05T07:55:02.046Z,103133.47
2023-02-05T07:55:53.840Z,103135.94
2023-02-05T07:56:45.655Z,103134.03
2023-02-05T07:57:37.237Z,103134.38
2023-02-05T07:58:29.035Z,103138.66
2023-02-05T07:59:20.506Z,103131.44
2023-02-05T08:00:12.689Z,103136.38
2023-02-05T08:01:05.770Z,103139.75
2023-02-05T08:01:57.249Z,103137.16
2023-02-05T08:02:48.910Z,103136.47
2023-02-05T08:03:40.437Z,103140.75
2023-02-05T08:04:32.033Z,103135.31
2023-02-05T08:05:23.937Z,103136.09
2023-02-05T08:06:16.563Z,103132.47
2023-02-05T08:07:09.510Z,103138.41
2023-02-05T08:08:00.906Z,103133.66
2023-02-05T08:08:52.501Z,103136.25
2023-02-05T08:09:44.410Z,103133.66
2023-02-05T08:10:35.995Z,103130.16
2023-02-05T08:11:27.616Z,103130.06
2023-02-05T08:12:19.458Z,103131.69
2023-02-05T08:13:11.114Z,103129.28
2023-02-05T08:14:02.796Z,103130.06
2023-02-05T08:14:54.852Z,103130.16
2023-02-05T08:15:46.296Z,103132.63
2023-02-05T08:16:37.897Z,103125.63
2023-02-05T08:17:29.406Z,103129.88
2023-02-05T08:18:21.300Z,103131.06
2023-02-05T08:19:17.761Z,103135.47
2023-02-05T08:20:10.495Z,103124.09
2023-02-05T08:21:01.894Z,103130.06
2023-02-05T08:21:53.761Z,103129.28
2023-02-05T08:22:45.631Z,103129.78
2023-02-05T08:23:37.051Z,103125.25
2023-02-05T08:24:28.910Z,103130.44
2023-02-05T08:25:20.359Z,103131.69
2023-02-05T08:26:12.277Z,103129.09
2023-02-05T08:27:04.100Z,103124.59
2023-02-05T08:27:55.608Z,103126.50
2023-02-05T08:28:47.443Z,103129.66
2023-02-05T08:29:38.897Z,103128.06
2023-02-05T08:30:30.728Z,103128.22
2023-02-05T08:31:22.232Z,103130.56
2023-02-05T08:32:13.689Z,103128.34
2023-02-05T08:33:05.287Z,103126.16
2023-02-05T08:33:57.932Z,103127.84
2023-02-05T08:34:49.570Z,103131.91
2023-02-05T08:35:41.128Z,103129.41
2023-02-05T08:36:32.606Z,103126.81
2023-02-05T08:37:24.391Z,103127.38
2023-02-05T08:38:16.246Z,103126.59
2023-02-05T08:39:07.781Z,103127.25
2023-02-05T08:39:59.211Z,103132.69
2023-02-05T08:40:51.100Z,103127.59
2023-02-05T08:41:42.804Z,103130.19
2023-02-05T08:42:34.666Z,103123.22
2023-02-05T08:43:26.068Z,103120.53
2023-02-05T08:44:18.019Z,103126.59
2023-02-05T08:45:09.850Z,103120.28
2023-02-05T08:46:03.397Z,103120.06
2023-02-05T08:46:54.883Z,103123.94
2023-02-05T08:47:46.333Z,103124.63
2023-02-05T08:48:37.877Z,103114.13
2023-02-05T08:49:29.602Z,103109.09
2023-02-05T08:50:22.358Z,103107.06
2023-02-05T08:51:15.264Z,103114.81
2023-02-05T08:52:06.712Z,103114.13
2023-02-05T08:52:58.186Z,103103.69
2023-02-05T08:53:50.645Z,103108.63
2023-02-05T08:54:42.621Z,103107.59
2023-02-05T08:55:41.606Z,103101.28
2023-02-05T08:56:33.323Z,103109.41
2023-02-05T08:57:28.911Z,103101.41
2023-02-05T08:58:20.367Z,103104.78
2023-02-05T08:59:12.736Z,103102.28
2023-02-05T09:00:05.501Z,103101.66
2023-02-05T09:01:08.817Z,103100.38
2023-02-05T09:02:00.960Z,103100.63
2023-02-05T09:02:52.448Z,103087.03
2023-02-05T09:03:45.080Z,103104.72
2023-02-05T09:04:36.497Z,103105.50
2023-02-05T09:05:27.962Z,103098.75
2023-02-05T09:06:19.431Z,103107.16
2023-02-05T09:07:11.880Z,103102.00
2023-02-05T09:08:03.382Z,103096.72
2023-02-05T09:08:54.797Z,103103.44
2023-02-05T09:09:46.196Z,103108.06
2023-02-05T09:10:37.747Z,103091.88
2023-02-05T09:11:30.419Z,103112.09
2023-02-05T09:12:22.098Z,103118.28
2023-02-05T09:13:13.710Z,103096.47
2023-02-05T09:14:05.993Z,103099.06
2023-02-05T09:14:57.506Z,103105.78
2023-02-05T09:15:50.114Z,103112.63
2023-02-05T09:16:41.744Z,103122.19
2023-02-05T09:17:33.208Z,103113.13
2023-02-05T09:18:25.173Z,103120.53
2023-02-05T09:19:16.685Z,103122.09
2023-02-05T09:20:08.809Z,103116.78
2023-02-05T09:21:00.433Z,103130.25
2023-02-05T09:21:53.954Z,103118.66
2023-02-05T09:22:45.912Z,103124.84
2023-02-05T09:23:38.011Z,103116.97
2023-02-05T09:24:30.187Z,103124.34
2023-02-05T09:25:30.132Z,103134.31
2023-02-05T09:26:22.030Z,103128.00
2023-02-05T09:27:14.871Z,103145.84
2023-02-05T09:28:09.323Z,103132.78
2023-02-05T09:29:01.197Z,103124.25
2023-02-05T09:29:52.655Z,103136.06
2023-02-05T09:30:46.021Z,103131.13
2023-02-05T09:31:37.912Z,103130.34
2023-02-05T09:32:29.696Z,103131.91
2023-02-05T09:33:21.116Z,103142.72
2023-02-05T09:34:13.208Z,103139.72
2023-02-05T09:35:05.028Z,103140.63
2023-02-05T09:35:56.514Z,103148.50
2023-02-05T09:36:48.134Z,103153.03
2023-02-05T09:37:39.733Z,103155.34
2023-02-05T09:38:31.166Z,103148.50
2023-02-05T09:40:01.961Z,103166.22
2023-02-05T09:40:54.436Z,103167.28
2023-02-05T09:42:06.674Z,103153.88
2023-02-05T09:43:24.026Z,103166.81
2023-02-05T09:44:41.677Z,103153.88
2023-02-05T09:45:50.855Z,103159.94
2023-02-05T09:46:58.025Z,103169.63
2023-02-05T09:48:08.547Z,103169.25
2023-02-05T09:49:06.313Z,103163.84
2023-02-05T09:50:15.348Z,103157.25
2023-02-05T09:51:11.263Z,103164.75
2023-02-05T09:52:17.756Z,103166.69
2023-02-05T09:53:19.260Z,103184.00
2023-02-05T09:54:22.388Z,103173.41
2023-02-05T09:55:27.442Z,103176.88
2023-02-05T09:56:19.403Z,103172.50
2023-02-05T09:57:16.624Z,103166.69
2023-02-05T09:58:16.421Z,103181.28
2023-02-05T09:59:17.361Z,103178.59
2023-02-05T10:00:28.548Z,103176.25
2023-02-05T10:01:30.939Z,103170.59
2023-02-05T10:02:34.276Z,103172.16
2023-02-05T10:03:50.912Z,103165.28
2023-02-05T10:04:42.448Z,103179.38
2023-02-05T10:06:03.362Z,103174.59
2023-02-05T10:07:18.640Z,103172.78
2023-02-05T10:08:51.812Z,103164.94
2023-02-05T10:10:15.950Z,103180.53
2023-02-05T10:11:36.480Z,103180.41
2023-02-05T10:13:15.684Z,103172.28
2023-02-05T10:14:42.644Z,103182.22
2023-02-05T10:15:49.910Z,103178.19
2023-02-05T10:17:02.922Z,103192.81
2023-02-05T10:18:12.898Z,103173.94
2023-02-05T10:19:26.268Z,103180.78
2023-02-05T10:20:34.701Z,103173.03
2023-02-05T10:21:32.148Z,103177.66
2023-02-05T10:22:56.033Z,103174.31
2023-02-05T10:24:18.015Z,103170.06
2023-02-05T10:25:28.994Z,103167.72
2023-02-05T10:26:30.395Z,103179.72
2023-02-05T10:27:40.354Z,103173.00
2023-02-05T10:28:37.732Z,103169.75
2023-02-05T10:29:41.288Z,103158.38
2023-02-05T10:31:02.935Z,103173.00
2023-02-05T10:32:01.820Z,103174.81
2023-02-05T10:33:06.254Z,103169.63